sensor_id;sensor_type;location;lat;lon;timestamp;temperature;humidity
7427;DHT22;3755;59.316;18.092;2022-10-18T00:02:22;8.30;99.90
7427;DHT22;3755;59.316;18.092;2022-10-18T00:04:49;8.30;99.90
7427;DHT22;3755;59.316;18.092;2022-10-18T00:07:18;8.40;99.90
7427;DHT22;3755;59.316;18.092;2022-10-18T00:09:45;8.30;99.90
7427;DHT22;3755;59.316;18.092;2022-10-18T00:12:12;8.40;99.90
7427;DHT22;3755;59.316;18.092;2022-10-18T00:14:39;8.30;99.90
7427;DHT22;3755;59.316;18.092;2022-10-18T00:17:06;8.20;99.90
7427;DHT22;3755;59.316;18.092;2022-10-18T00:19:33;8.20;99.90
7427;DHT22;3755;59.316;18.092;2022-10-18T00:22:00;8.20;99.90
7427;DHT22;3755;59.316;18.092;2022-10-18T00:24:28;8.20;99.90
7427;DHT22;3755;59.316;18.092;2022-10-18T00:26:55;8.30;99.90
7427;DHT22;3755;59.316;18.092;2022-10-18T00:29:22;8.30;99.90
7427;DHT22;3755;59.316;18.092;2022-10-18T00:31:49;8.30;99.90
7427;DHT22;3755;59.316;18.092;2022-10-18T00:34:16;8.30;99.90
7427;DHT22;3755;59.316;18.092;2022-10-18T00:36:44;8.30;99.90
7427;DHT22;3755;59.316;18.092;2022-10-18T00:39:14;8.20;99.90
7427;DHT22;3755;59.316;18.092;2022-10-18T00:41:44;8.20;99.90
7427;DHT22;3755;59.316;18.092;2022-10-18T00:47:16;8.10;99.90
7427;DHT22;3755;59.316;18.092;2022-10-18T00:49:45;8.20;99.90
7427;DHT22;3755;59.316;18.092;2022-10-18T00:52:17;8.20;99.90
7427;DHT22;3755;59.316;18.092;2022-10-18T00:54:45;8.20;99.90
7427;DHT22;3755;59.316;18.092;2022-10-18T00:57:14;8.20;99.90
7427;DHT22;3755;59.316;18.092;2022-10-18T00:59:42;8.20;99.90
7427;DHT22;3755;59.316;18.092;2022-10-18T01:02:09;8.20;99.90
7427;DHT22;3755;59.316;18.092;2022-10-18T01:04:39;8.30;99.90
7427;DHT22;3755;59.316;18.092;2022-10-18T01:07:28;8.30;99.90
7427;DHT22;3755;59.316;18.092;2022-10-18T01:10:01;8.30;99.90
7427;DHT22;3755;59.316;18.092;2022-10-18T01:12:50;8.30;99.90
7427;DHT22;3755;59.316;18.092;2022-10-18T01:15:24;8.30;99.90
7427;DHT22;3755;59.316;18.092;2022-10-18T01:18:00;8.30;99.90
7427;DHT22;3755;59.316;18.092;2022-10-18T01:20:53;8.30;99.90
7427;DHT22;3755;59.316;18.092;2022-10-18T01:23:32;8.30;99.90
7427;DHT22;3755;59.316;18.092;2022-10-18T01:26:09;8.40;99.90
7427;DHT22;3755;59.316;18.092;2022-10-18T01:28:52;8.30;99.90
7427;DHT22;3755;59.316;18.092;2022-10-18T01:31:22;8.30;99.90
7427;DHT22;3755;59.316;18.092;2022-10-18T01:33:56;8.30;99.90
7427;DHT22;3755;59.316;18.092;2022-10-18T01:36:27;8.30;99.90
7427;DHT22;3755;59.316;18.092;2022-10-18T01:38:57;8.30;99.90
7427;DHT22;3755;59.316;18.092;2022-10-18T01:41:26;8.30;99.90
7427;DHT22;3755;59.316;18.092;2022-10-18T01:43:58;8.30;99.90
7427;DHT22;3755;59.316;18.092;2022-10-18T01:46:28;8.30;99.90
7427;DHT22;3755;59.316;18.092;2022-10-18T01:48:56;8.30;99.90
7427;DHT22;3755;59.316;18.092;2022-10-18T01:51:24;8.30;99.90
7427;DHT22;3755;59.316;18.092;2022-10-18T01:53:52;8.30;99.90
7427;DHT22;3755;59.316;18.092;2022-10-18T01:56:24;8.30;99.90
7427;DHT22;3755;59.316;18.092;2022-10-18T01:59:09;8.30;99.90
7427;DHT22;3755;59.316;18.092;2022-10-18T02:01:47;8.40;99.90
7427;DHT22;3755;59.316;18.092;2022-10-18T02:04:21;8.40;99.90
7427;DHT22;3755;59.316;18.092;2022-10-18T02:06:56;8.40;99.90
7427;DHT22;3755;59.316;18.092;2022-10-18T02:09:30;8.40;99.90
7427;DHT22;3755;59.316;18.092;2022-10-18T02:12:00;8.40;99.90
7427;DHT22;3755;59.316;18.092;2022-10-18T02:14:28;8.40;99.90
7427;DHT22;3755;59.316;18.092;2022-10-18T02:16:59;8.40;99.90
7427;DHT22;3755;59.316;18.092;2022-10-18T02:19:29;8.40;99.90
7427;DHT22;3755;59.316;18.092;2022-10-18T02:21:58;8.40;99.90
7427;DHT22;3755;59.316;18.092;2022-10-18T02:24:33;8.40;99.90
7427;DHT22;3755;59.316;18.092;2022-10-18T02:27:01;8.40;99.90
7427;DHT22;3755;59.316;18.092;2022-10-18T02:29:28;8.20;99.90
7427;DHT22;3755;59.316;18.092;2022-10-18T02:32:03;8.40;99.90
7427;DHT22;3755;59.316;18.092;2022-10-18T02:34:35;8.40;99.90
7427;DHT22;3755;59.316;18.092;2022-10-18T02:37:03;8.50;99.90
7427;DHT22;3755;59.316;18.092;2022-10-18T02:39:33;8.40;99.90
7427;DHT22;3755;59.316;18.092;2022-10-18T02:42:02;8.50;99.90
7427;DHT22;3755;59.316;18.092;2022-10-18T02:44:31;8.50;99.90
7427;DHT22;3755;59.316;18.092;2022-10-18T02:46:59;8.50;99.90
7427;DHT22;3755;59.316;18.092;2022-10-18T02:49:27;8.40;99.90
7427;DHT22;3755;59.316;18.092;2022-10-18T02:51:54;8.30;99.90
7427;DHT22;3755;59.316;18.092;2022-10-18T02:54:21;8.30;99.90
7427;DHT22;3755;59.316;18.092;2022-10-18T02:56:48;8.30;99.90
7427;DHT22;3755;59.316;18.092;2022-10-18T02:59:15;8.30;99.90
7427;DHT22;3755;59.316;18.092;2022-10-18T03:01:43;8.30;99.90
7427;DHT22;3755;59.316;18.092;2022-10-18T03:04:11;8.30;99.90
7427;DHT22;3755;59.316;18.092;2022-10-18T03:06:38;8.40;99.90
7427;DHT22;3755;59.316;18.092;2022-10-18T03:09:05;8.30;99.90
7427;DHT22;3755;59.316;18.092;2022-10-18T03:11:33;8.30;99.90
7427;DHT22;3755;59.316;18.092;2022-10-18T03:14:00;8.30;99.90
7427;DHT22;3755;59.316;18.092;2022-10-18T03:16:27;8.30;99.90
7427;DHT22;3755;59.316;18.092;2022-10-18T03:18:54;8.30;99.90
7427;DHT22;3755;59.316;18.092;2022-10-18T03:21:22;8.30;99.90
7427;DHT22;3755;59.316;18.092;2022-10-18T03:23:49;8.40;99.90
7427;DHT22;3755;59.316;18.092;2022-10-18T03:26:16;8.40;99.90
7427;DHT22;3755;59.316;18.092;2022-10-18T03:28:44;8.40;99.90
7427;DHT22;3755;59.316;18.092;2022-10-18T03:31:11;8.40;99.90
7427;DHT22;3755;59.316;18.092;2022-10-18T03:33:38;8.30;99.90
7427;DHT22;3755;59.316;18.092;2022-10-18T03:36:05;8.20;99.90
7427;DHT22;3755;59.316;18.092;2022-10-18T03:38:33;8.20;99.90
7427;DHT22;3755;59.316;18.092;2022-10-18T03:41:00;8.20;99.90
7427;DHT22;3755;59.316;18.092;2022-10-18T03:43:27;8.20;99.90
7427;DHT22;3755;59.316;18.092;2022-10-18T03:45:54;8.20;99.90
7427;DHT22;3755;59.316;18.092;2022-10-18T03:48:22;8.20;99.90
7427;DHT22;3755;59.316;18.092;2022-10-18T03:50:49;8.20;99.90
7427;DHT22;3755;59.316;18.092;2022-10-18T03:53:16;8.20;99.90
7427;DHT22;3755;59.316;18.092;2022-10-18T03:55:49;8.20;99.90
7427;DHT22;3755;59.316;18.092;2022-10-18T03:58:16;8.20;99.90
7427;DHT22;3755;59.316;18.092;2022-10-18T04:00:43;8.20;99.90
7427;DHT22;3755;59.316;18.092;2022-10-18T04:03:10;8.20;99.90
7427;DHT22;3755;59.316;18.092;2022-10-18T04:05:37;8.20;99.90
7427;DHT22;3755;59.316;18.092;2022-10-18T04:08:04;8.30;99.90
7427;DHT22;3755;59.316;18.092;2022-10-18T04:10:31;8.20;99.90
7427;DHT22;3755;59.316;18.092;2022-10-18T04:13:00;8.20;99.90
7427;DHT22;3755;59.316;18.092;2022-10-18T04:15:26;8.20;99.90
7427;DHT22;3755;59.316;18.092;2022-10-18T04:17:54;8.20;99.90
7427;DHT22;3755;59.316;18.092;2022-10-18T04:20:21;8.30;99.90
7427;DHT22;3755;59.316;18.092;2022-10-18T04:22:48;8.30;99.90
7427;DHT22;3755;59.316;18.092;2022-10-18T04:25:16;8.20;99.90
7427;DHT22;3755;59.316;18.092;2022-10-18T04:27:43;8.30;99.90
7427;DHT22;3755;59.316;18.092;2022-10-18T04:30:13;8.30;99.90
7427;DHT22;3755;59.316;18.092;2022-10-18T04:32:41;8.30;99.90
7427;DHT22;3755;59.316;18.092;2022-10-18T04:35:09;8.40;99.90
7427;DHT22;3755;59.316;18.092;2022-10-18T04:37:36;8.40;99.90
7427;DHT22;3755;59.316;18.092;2022-10-18T04:40:04;8.50;99.90
7427;DHT22;3755;59.316;18.092;2022-10-18T04:42:31;8.40;99.90
7427;DHT22;3755;59.316;18.092;2022-10-18T04:45:00;8.50;99.90
7427;DHT22;3755;59.316;18.092;2022-10-18T04:47:29;8.40;99.90
7427;DHT22;3755;59.316;18.092;2022-10-18T04:49:56;8.40;99.90
7427;DHT22;3755;59.316;18.092;2022-10-18T04:52:23;8.40;99.90
7427;DHT22;3755;59.316;18.092;2022-10-18T04:54:50;8.40;99.90
7427;DHT22;3755;59.316;18.092;2022-10-18T04:57:17;8.30;99.90
7427;DHT22;3755;59.316;18.092;2022-10-18T04:59:45;8.30;99.90
7427;DHT22;3755;59.316;18.092;2022-10-18T05:02:12;8.40;99.90
7427;DHT22;3755;59.316;18.092;2022-10-18T05:04:40;8.40;99.90
7427;DHT22;3755;59.316;18.092;2022-10-18T05:07:07;8.20;99.90
7427;DHT22;3755;59.316;18.092;2022-10-18T05:09:35;8.40;99.90
7427;DHT22;3755;59.316;18.092;2022-10-18T05:12:02;8.40;99.90
7427;DHT22;3755;59.316;18.092;2022-10-18T05:14:29;8.40;99.90
7427;DHT22;3755;59.316;18.092;2022-10-18T05:16:56;8.40;99.90
7427;DHT22;3755;59.316;18.092;2022-10-18T05:19:23;8.50;99.90
7427;DHT22;3755;59.316;18.092;2022-10-18T05:21:51;8.40;99.90
7427;DHT22;3755;59.316;18.092;2022-10-18T05:24:19;8.40;99.90
7427;DHT22;3755;59.316;18.092;2022-10-18T05:26:46;8.40;99.90
7427;DHT22;3755;59.316;18.092;2022-10-18T05:29:13;8.40;99.90
7427;DHT22;3755;59.316;18.092;2022-10-18T05:31:40;8.40;99.90
7427;DHT22;3755;59.316;18.092;2022-10-18T05:34:07;8.40;99.90
7427;DHT22;3755;59.316;18.092;2022-10-18T05:36:34;8.40;99.90
7427;DHT22;3755;59.316;18.092;2022-10-18T05:39:03;8.30;99.90
7427;DHT22;3755;59.316;18.092;2022-10-18T05:41:31;8.30;99.90
7427;DHT22;3755;59.316;18.092;2022-10-18T05:44:01;8.30;99.90
7427;DHT22;3755;59.316;18.092;2022-10-18T05:46:29;8.30;99.90
7427;DHT22;3755;59.316;18.092;2022-10-18T05:48:56;8.30;99.90
7427;DHT22;3755;59.316;18.092;2022-10-18T05:51:24;8.30;99.90
7427;DHT22;3755;59.316;18.092;2022-10-18T05:53:53;8.30;99.90
7427;DHT22;3755;59.316;18.092;2022-10-18T05:56:21;8.30;99.90
7427;DHT22;3755;59.316;18.092;2022-10-18T05:58:50;8.30;99.90
7427;DHT22;3755;59.316;18.092;2022-10-18T06:01:17;8.30;99.90
7427;DHT22;3755;59.316;18.092;2022-10-18T06:03:45;8.40;99.90
7427;DHT22;3755;59.316;18.092;2022-10-18T06:06:12;8.40;99.90
7427;DHT22;3755;59.316;18.092;2022-10-18T06:08:42;8.40;99.90
7427;DHT22;3755;59.316;18.092;2022-10-18T06:11:11;8.50;99.90
7427;DHT22;3755;59.316;18.092;2022-10-18T06:13:41;8.50;99.90
7427;DHT22;3755;59.316;18.092;2022-10-18T06:16:13;8.50;99.90
7427;DHT22;3755;59.316;18.092;2022-10-18T06:18:47;8.40;99.90
7427;DHT22;3755;59.316;18.092;2022-10-18T06:21:21;8.40;99.90
7427;DHT22;3755;59.316;18.092;2022-10-18T06:23:52;8.20;99.90
7427;DHT22;3755;59.316;18.092;2022-10-18T06:26:21;8.50;99.90
7427;DHT22;3755;59.316;18.092;2022-10-18T06:28:56;8.40;99.90
7427;DHT22;3755;59.316;18.092;2022-10-18T06:31:32;8.40;99.90
7427;DHT22;3755;59.316;18.092;2022-10-18T06:33:59;8.40;99.90
7427;DHT22;3755;59.316;18.092;2022-10-18T06:36:28;8.40;99.90
7427;DHT22;3755;59.316;18.092;2022-10-18T06:38:55;8.60;99.90
7427;DHT22;3755;59.316;18.092;2022-10-18T06:41:24;8.60;99.90
7427;DHT22;3755;59.316;18.092;2022-10-18T06:43:53;8.70;99.90
7427;DHT22;3755;59.316;18.092;2022-10-18T06:46:35;8.70;99.90
7427;DHT22;3755;59.316;18.092;2022-10-18T06:49:02;8.70;99.90
7427;DHT22;3755;59.316;18.092;2022-10-18T06:51:29;8.70;99.90
7427;DHT22;3755;59.316;18.092;2022-10-18T06:53:56;8.60;99.90
7427;DHT22;3755;59.316;18.092;2022-10-18T06:56:24;8.70;99.90
7427;DHT22;3755;59.316;18.092;2022-10-18T06:58:53;8.70;99.90
7427;DHT22;3755;59.316;18.092;2022-10-18T07:01:20;8.70;99.90
7427;DHT22;3755;59.316;18.092;2022-10-18T07:03:52;8.80;99.90
7427;DHT22;3755;59.316;18.092;2022-10-18T07:06:20;8.80;99.90
7427;DHT22;3755;59.316;18.092;2022-10-18T07:08:48;8.90;99.90
7427;DHT22;3755;59.316;18.092;2022-10-18T07:11:20;8.90;99.90
7427;DHT22;3755;59.316;18.092;2022-10-18T07:13:48;8.80;99.90
7427;DHT22;3755;59.316;18.092;2022-10-18T07:16:18;8.80;99.90
7427;DHT22;3755;59.316;18.092;2022-10-18T07:18:46;8.80;99.90
7427;DHT22;3755;59.316;18.092;2022-10-18T07:21:18;8.80;99.90
7427;DHT22;3755;59.316;18.092;2022-10-18T07:23:46;8.90;99.90
7427;DHT22;3755;59.316;18.092;2022-10-18T07:26:15;8.90;99.90
7427;DHT22;3755;59.316;18.092;2022-10-18T07:28:44;8.90;99.90
7427;DHT22;3755;59.316;18.092;2022-10-18T07:31:12;9.00;99.90
7427;DHT22;3755;59.316;18.092;2022-10-18T07:33:41;9.00;99.90
7427;DHT22;3755;59.316;18.092;2022-10-18T07:36:16;9.10;99.90
7427;DHT22;3755;59.316;18.092;2022-10-18T07:38:45;9.20;99.90
7427;DHT22;3755;59.316;18.092;2022-10-18T07:41:16;9.30;99.90
7427;DHT22;3755;59.316;18.092;2022-10-18T07:43:47;9.30;99.90
7427;DHT22;3755;59.316;18.092;2022-10-18T07:46:16;9.20;99.90
7427;DHT22;3755;59.316;18.092;2022-10-18T07:48:44;9.20;99.90
7427;DHT22;3755;59.316;18.092;2022-10-18T07:51:12;9.20;99.90
7427;DHT22;3755;59.316;18.092;2022-10-18T07:53:41;9.30;99.90
7427;DHT22;3755;59.316;18.092;2022-10-18T07:56:13;9.40;99.90
7427;DHT22;3755;59.316;18.092;2022-10-18T07:58:42;9.60;99.90
7427;DHT22;3755;59.316;18.092;2022-10-18T08:01:10;9.70;99.90
7427;DHT22;3755;59.316;18.092;2022-10-18T08:03:38;9.60;99.90
7427;DHT22;3755;59.316;18.092;2022-10-18T08:06:09;9.60;99.90
7427;DHT22;3755;59.316;18.092;2022-10-18T08:08:52;9.50;99.90
7427;DHT22;3755;59.316;18.092;2022-10-18T08:11:34;9.40;99.90
7427;DHT22;3755;59.316;18.092;2022-10-18T08:14:01;9.40;99.90
7427;DHT22;3755;59.316;18.092;2022-10-18T08:16:29;9.60;99.90
7427;DHT22;3755;59.316;18.092;2022-10-18T08:18:56;9.40;99.90
7427;DHT22;3755;59.316;18.092;2022-10-18T08:21:25;9.50;99.90
7427;DHT22;3755;59.316;18.092;2022-10-18T08:23:52;9.50;99.90
7427;DHT22;3755;59.316;18.092;2022-10-18T08:26:21;9.60;99.90
7427;DHT22;3755;59.316;18.092;2022-10-18T08:28:49;9.70;99.90
7427;DHT22;3755;59.316;18.092;2022-10-18T08:31:18;9.80;99.90
7427;DHT22;3755;59.316;18.092;2022-10-18T08:33:47;9.80;99.90
7427;DHT22;3755;59.316;18.092;2022-10-18T08:36:17;9.80;99.90
7427;DHT22;3755;59.316;18.092;2022-10-18T08:38:50;9.80;99.90
7427;DHT22;3755;59.316;18.092;2022-10-18T08:41:36;9.70;99.90
7427;DHT22;3755;59.316;18.092;2022-10-18T08:44:12;9.70;99.90
7427;DHT22;3755;59.316;18.092;2022-10-18T08:46:45;9.70;99.90
7427;DHT22;3755;59.316;18.092;2022-10-18T08:49:21;9.70;99.90
7427;DHT22;3755;59.316;18.092;2022-10-18T08:51:51;9.70;99.90
7427;DHT22;3755;59.316;18.092;2022-10-18T08:54:26;9.70;99.90
7427;DHT22;3755;59.316;18.092;2022-10-18T08:56:59;9.80;99.90
7427;DHT22;3755;59.316;18.092;2022-10-18T08:59:31;9.80;99.90
7427;DHT22;3755;59.316;18.092;2022-10-18T09:02:06;9.90;99.90
7427;DHT22;3755;59.316;18.092;2022-10-18T09:04:47;9.80;99.90
7427;DHT22;3755;59.316;18.092;2022-10-18T09:07:38;9.80;99.90
7427;DHT22;3755;59.316;18.092;2022-10-18T09:10:21;9.80;99.90
7427;DHT22;3755;59.316;18.092;2022-10-18T09:13:05;9.70;99.90
7427;DHT22;3755;59.316;18.092;2022-10-18T09:15:41;9.80;99.90
7427;DHT22;3755;59.316;18.092;2022-10-18T09:18:27;9.90;99.90
7427;DHT22;3755;59.316;18.092;2022-10-18T09:20:59;9.80;99.90
7427;DHT22;3755;59.316;18.092;2022-10-18T09:23:33;9.80;99.90
7427;DHT22;3755;59.316;18.092;2022-10-18T09:26:12;9.90;99.90
7427;DHT22;3755;59.316;18.092;2022-10-18T09:28:48;10.00;99.90
7427;DHT22;3755;59.316;18.092;2022-10-18T09:31:24;10.00;99.90
7427;DHT22;3755;59.316;18.092;2022-10-18T09:37:23;9.90;99.90
7427;DHT22;3755;59.316;18.092;2022-10-18T09:39:59;10.00;99.90
7427;DHT22;3755;59.316;18.092;2022-10-18T09:42:34;10.00;99.90
7427;DHT22;3755;59.316;18.092;2022-10-18T09:45:07;10.00;99.90
7427;DHT22;3755;59.316;18.092;2022-10-18T09:47:45;10.00;99.90
7427;DHT22;3755;59.316;18.092;2022-10-18T09:50:24;10.10;99.90
7427;DHT22;3755;59.316;18.092;2022-10-18T09:53:03;10.10;99.90
7427;DHT22;3755;59.316;18.092;2022-10-18T09:55:55;10.20;99.90
7427;DHT22;3755;59.316;18.092;2022-10-18T09:58:41;10.20;99.90
7427;DHT22;3755;59.316;18.092;2022-10-18T10:01:21;10.30;99.90
7427;DHT22;3755;59.316;18.092;2022-10-18T10:03:51;10.30;99.90
7427;DHT22;3755;59.316;18.092;2022-10-18T10:06:24;10.40;99.90
7427;DHT22;3755;59.316;18.092;2022-10-18T10:08:57;10.40;99.90
7427;DHT22;3755;59.316;18.092;2022-10-18T10:11:33;10.30;99.90
7427;DHT22;3755;59.316;18.092;2022-10-18T10:14:11;10.30;99.90
7427;DHT22;3755;59.316;18.092;2022-10-18T10:16:54;10.20;99.90
7427;DHT22;3755;59.316;18.092;2022-10-18T10:19:27;10.10;99.90
7427;DHT22;3755;59.316;18.092;2022-10-18T10:22:02;10.10;99.90
7427;DHT22;3755;59.316;18.092;2022-10-18T10:24:41;10.10;99.90
7427;DHT22;3755;59.316;18.092;2022-10-18T10:27:16;10.30;99.90
7427;DHT22;3755;59.316;18.092;2022-10-18T10:32:29;10.20;99.90
7427;DHT22;3755;59.316;18.092;2022-10-18T10:34:57;10.10;99.90
7427;DHT22;3755;59.316;18.092;2022-10-18T10:37:27;10.10;99.90
7427;DHT22;3755;59.316;18.092;2022-10-18T10:40:17;10.30;99.90
7427;DHT22;3755;59.316;18.092;2022-10-18T10:42:55;10.30;99.90
7427;DHT22;3755;59.316;18.092;2022-10-18T10:45:27;10.30;99.90
7427;DHT22;3755;59.316;18.092;2022-10-18T10:48:03;10.30;99.90
7427;DHT22;3755;59.316;18.092;2022-10-18T10:50:30;10.40;99.90
7427;DHT22;3755;59.316;18.092;2022-10-18T10:52:58;10.40;99.90
7427;DHT22;3755;59.316;18.092;2022-10-18T10:55:29;10.50;99.90
7427;DHT22;3755;59.316;18.092;2022-10-18T10:57:59;10.50;99.90
7427;DHT22;3755;59.316;18.092;2022-10-18T11:00:40;10.40;99.90
7427;DHT22;3755;59.316;18.092;2022-10-18T11:03:12;10.60;99.90
7427;DHT22;3755;59.316;18.092;2022-10-18T11:05:45;11.00;99.90
7427;DHT22;3755;59.316;18.092;2022-10-18T11:08:15;11.00;99.90
7427;DHT22;3755;59.316;18.092;2022-10-18T11:10:59;11.00;99.90
7427;DHT22;3755;59.316;18.092;2022-10-18T11:13:41;11.10;99.90
7427;DHT22;3755;59.316;18.092;2022-10-18T11:16:15;11.10;99.90
7427;DHT22;3755;59.316;18.092;2022-10-18T11:18:46;10.90;99.90
7427;DHT22;3755;59.316;18.092;2022-10-18T11:21:17;10.70;99.90
7427;DHT22;3755;59.316;18.092;2022-10-18T11:23:46;10.80;99.90
7427;DHT22;3755;59.316;18.092;2022-10-18T11:26:32;10.80;99.90
7427;DHT22;3755;59.316;18.092;2022-10-18T11:29:25;10.70;99.90
7427;DHT22;3755;59.316;18.092;2022-10-18T11:32:01;10.80;99.90
7427;DHT22;3755;59.316;18.092;2022-10-18T11:34:43;10.70;99.90
7427;DHT22;3755;59.316;18.092;2022-10-18T11:37:25;10.60;99.90
7427;DHT22;3755;59.316;18.092;2022-10-18T11:40:06;10.70;99.90
7427;DHT22;3755;59.316;18.092;2022-10-18T11:42:42;10.60;99.90
7427;DHT22;3755;59.316;18.092;2022-10-18T11:45:23;10.60;99.90
7427;DHT22;3755;59.316;18.092;2022-10-18T11:47:58;10.50;99.90
7427;DHT22;3755;59.316;18.092;2022-10-18T11:50:33;10.40;99.90
7427;DHT22;3755;59.316;18.092;2022-10-18T11:53:11;10.30;99.90
7427;DHT22;3755;59.316;18.092;2022-10-18T11:55:50;10.30;99.90
7427;DHT22;3755;59.316;18.092;2022-10-18T11:58:37;10.20;99.90
7427;DHT22;3755;59.316;18.092;2022-10-18T12:01:17;10.10;99.90
7427;DHT22;3755;59.316;18.092;2022-10-18T12:03:56;10.00;99.90
7427;DHT22;3755;59.316;18.092;2022-10-18T12:06:29;10.00;99.90
7427;DHT22;3755;59.316;18.092;2022-10-18T12:09:00;10.00;99.90
7427;DHT22;3755;59.316;18.092;2022-10-18T12:11:30;10.10;99.90
7427;DHT22;3755;59.316;18.092;2022-10-18T12:14:01;10.00;99.90
7427;DHT22;3755;59.316;18.092;2022-10-18T12:16:33;9.90;99.90
7427;DHT22;3755;59.316;18.092;2022-10-18T12:19:07;10.00;99.90
7427;DHT22;3755;59.316;18.092;2022-10-18T12:21:38;10.00;99.90
7427;DHT22;3755;59.316;18.092;2022-10-18T12:24:07;10.00;99.90
7427;DHT22;3755;59.316;18.092;2022-10-18T12:26:37;9.90;99.90
7427;DHT22;3755;59.316;18.092;2022-10-18T12:29:17;9.90;99.90
7427;DHT22;3755;59.316;18.092;2022-10-18T12:31:50;10.00;99.90
7427;DHT22;3755;59.316;18.092;2022-10-18T12:34:30;10.00;99.90
7427;DHT22;3755;59.316;18.092;2022-10-18T12:39:53;10.10;99.90
7427;DHT22;3755;59.316;18.092;2022-10-18T12:42:25;10.20;99.90
7427;DHT22;3755;59.316;18.092;2022-10-18T12:45:00;10.20;99.90
7427;DHT22;3755;59.316;18.092;2022-10-18T12:47:29;10.20;99.90
7427;DHT22;3755;59.316;18.092;2022-10-18T12:50:02;10.20;99.90
7427;DHT22;3755;59.316;18.092;2022-10-18T12:52:33;10.10;99.90
7427;DHT22;3755;59.316;18.092;2022-10-18T12:55:12;10.00;99.90
7427;DHT22;3755;59.316;18.092;2022-10-18T12:58:20;10.00;99.90
7427;DHT22;3755;59.316;18.092;2022-10-18T13:00:52;9.90;99.90
7427;DHT22;3755;59.316;18.092;2022-10-18T13:09:41;9.70;99.90
7427;DHT22;3755;59.316;18.092;2022-10-18T13:15:28;9.90;99.90
7427;DHT22;3755;59.316;18.092;2022-10-18T13:18:03;10.00;99.90
7427;DHT22;3755;59.316;18.092;2022-10-18T13:20:37;10.00;99.90
7427;DHT22;3755;59.316;18.092;2022-10-18T13:23:23;10.00;99.90
7427;DHT22;3755;59.316;18.092;2022-10-18T13:25:59;9.90;99.90
7427;DHT22;3755;59.316;18.092;2022-10-18T13:28:31;10.00;99.90
7427;DHT22;3755;59.316;18.092;2022-10-18T13:31:11;10.00;99.90
7427;DHT22;3755;59.316;18.092;2022-10-18T13:33:41;10.00;99.90
7427;DHT22;3755;59.316;18.092;2022-10-18T13:36:19;10.00;99.90
7427;DHT22;3755;59.316;18.092;2022-10-18T13:39:02;10.00;99.90
7427;DHT22;3755;59.316;18.092;2022-10-18T13:44:48;9.90;99.90
7427;DHT22;3755;59.316;18.092;2022-10-18T13:47:32;9.90;99.90
7427;DHT22;3755;59.316;18.092;2022-10-18T13:50:23;9.90;99.90
7427;DHT22;3755;59.316;18.092;2022-10-18T13:53:24;9.90;99.90
7427;DHT22;3755;59.316;18.092;2022-10-18T13:56:13;10.00;99.90
7427;DHT22;3755;59.316;18.092;2022-10-18T13:58:51;9.90;99.90
7427;DHT22;3755;59.316;18.092;2022-10-18T14:01:30;10.00;99.90
7427;DHT22;3755;59.316;18.092;2022-10-18T14:07:08;10.00;99.90
7427;DHT22;3755;59.316;18.092;2022-10-18T14:09:46;9.90;99.90
7427;DHT22;3755;59.316;18.092;2022-10-18T14:12:24;9.90;99.90
7427;DHT22;3755;59.316;18.092;2022-10-18T14:14:57;9.90;99.90
7427;DHT22;3755;59.316;18.092;2022-10-18T14:17:34;9.90;99.90
7427;DHT22;3755;59.316;18.092;2022-10-18T14:20:10;9.80;99.90
7427;DHT22;3755;59.316;18.092;2022-10-18T14:22:43;9.80;99.90
7427;DHT22;3755;59.316;18.092;2022-10-18T14:25:20;9.80;99.90
7427;DHT22;3755;59.316;18.092;2022-10-18T14:28:12;9.80;99.90
7427;DHT22;3755;59.316;18.092;2022-10-18T14:30:51;9.80;99.90
7427;DHT22;3755;59.316;18.092;2022-10-18T14:33:39;9.80;99.90
7427;DHT22;3755;59.316;18.092;2022-10-18T14:36:10;9.80;99.90
7427;DHT22;3755;59.316;18.092;2022-10-18T14:38:45;9.80;99.90
7427;DHT22;3755;59.316;18.092;2022-10-18T14:41:16;9.60;99.90
7427;DHT22;3755;59.316;18.092;2022-10-18T14:43:43;9.50;99.90
7427;DHT22;3755;59.316;18.092;2022-10-18T14:46:17;9.40;99.90
7427;DHT22;3755;59.316;18.092;2022-10-18T14:48:58;9.30;99.90
7427;DHT22;3755;59.316;18.092;2022-10-18T14:51:27;9.20;99.90
7427;DHT22;3755;59.316;18.092;2022-10-18T14:53:55;9.20;99.90
7427;DHT22;3755;59.316;18.092;2022-10-18T14:56:25;9.10;99.90
7427;DHT22;3755;59.316;18.092;2022-10-18T14:58:56;9.10;99.90
7427;DHT22;3755;59.316;18.092;2022-10-18T15:01:26;9.10;99.90
7427;DHT22;3755;59.316;18.092;2022-10-18T15:04:00;9.20;99.90
7427;DHT22;3755;59.316;18.092;2022-10-18T15:06:28;9.20;99.90
7427;DHT22;3755;59.316;18.092;2022-10-18T15:08:57;9.20;99.90
7427;DHT22;3755;59.316;18.092;2022-10-18T15:11:25;9.20;99.90
7427;DHT22;3755;59.316;18.092;2022-10-18T15:13:55;9.40;99.90
7427;DHT22;3755;59.316;18.092;2022-10-18T15:16:25;9.20;99.90
7427;DHT22;3755;59.316;18.092;2022-10-18T15:19:05;9.30;99.90
7427;DHT22;3755;59.316;18.092;2022-10-18T15:21:34;9.30;99.90
7427;DHT22;3755;59.316;18.092;2022-10-18T15:24:29;9.30;99.90
7427;DHT22;3755;59.316;18.092;2022-10-18T15:27:00;9.30;99.90
7427;DHT22;3755;59.316;18.092;2022-10-18T15:29:30;9.20;99.90
7427;DHT22;3755;59.316;18.092;2022-10-18T15:32:10;9.20;99.90
7427;DHT22;3755;59.316;18.092;2022-10-18T15:34:40;9.10;99.90
7427;DHT22;3755;59.316;18.092;2022-10-18T15:37:15;9.10;99.90
7427;DHT22;3755;59.316;18.092;2022-10-18T15:39:44;9.00;99.90
7427;DHT22;3755;59.316;18.092;2022-10-18T15:42:34;9.00;99.90
7427;DHT22;3755;59.316;18.092;2022-10-18T15:45:01;9.00;99.90
7427;DHT22;3755;59.316;18.092;2022-10-18T15:47:29;8.90;99.90
7427;DHT22;3755;59.316;18.092;2022-10-18T15:49:59;8.90;99.90
7427;DHT22;3755;59.316;18.092;2022-10-18T15:52:35;8.90;99.90
7427;DHT22;3755;59.316;18.092;2022-10-18T15:58:08;9.00;99.90
7427;DHT22;3755;59.316;18.092;2022-10-18T16:00:41;9.00;99.90
7427;DHT22;3755;59.316;18.092;2022-10-18T16:03:09;9.00;99.90
7427;DHT22;3755;59.316;18.092;2022-10-18T16:05:38;9.00;99.90
7427;DHT22;3755;59.316;18.092;2022-10-18T16:08:17;9.00;99.90
7427;DHT22;3755;59.316;18.092;2022-10-18T16:10:45;9.00;99.90
7427;DHT22;3755;59.316;18.092;2022-10-18T16:13:13;8.90;99.90
7427;DHT22;3755;59.316;18.092;2022-10-18T16:15:40;8.90;99.90
7427;DHT22;3755;59.316;18.092;2022-10-18T16:18:12;9.00;99.90
7427;DHT22;3755;59.316;18.092;2022-10-18T16:20:41;9.00;99.90
7427;DHT22;3755;59.316;18.092;2022-10-18T16:23:15;9.00;99.90
7427;DHT22;3755;59.316;18.092;2022-10-18T16:25:43;9.00;99.90
7427;DHT22;3755;59.316;18.092;2022-10-18T16:28:13;8.90;99.90
7427;DHT22;3755;59.316;18.092;2022-10-18T16:30:42;8.90;99.90
7427;DHT22;3755;59.316;18.092;2022-10-18T16:33:16;8.90;99.90
7427;DHT22;3755;59.316;18.092;2022-10-18T16:35:45;8.80;99.90
7427;DHT22;3755;59.316;18.092;2022-10-18T16:38:26;8.80;99.90
7427;DHT22;3755;59.316;18.092;2022-10-18T16:40:56;8.80;99.90
7427;DHT22;3755;59.316;18.092;2022-10-18T16:43:24;8.80;99.90
7427;DHT22;3755;59.316;18.092;2022-10-18T16:45:52;8.80;99.90
7427;DHT22;3755;59.316;18.092;2022-10-18T16:48:22;8.70;99.90
7427;DHT22;3755;59.316;18.092;2022-10-18T16:50:53;8.60;99.90
7427;DHT22;3755;59.316;18.092;2022-10-18T16:53:36;8.60;99.90
7427;DHT22;3755;59.316;18.092;2022-10-18T16:56:12;8.60;99.90
7427;DHT22;3755;59.316;18.092;2022-10-18T16:58:39;8.50;99.90
7427;DHT22;3755;59.316;18.092;2022-10-18T17:01:08;8.40;99.90